createdAt,value
2022-10-06T00:01:12.217Z,100895.19
2022-10-06T00:03:39.292Z,100895.44
2022-10-06T00:06:07.386Z,100892.91
2022-10-06T00:08:36.965Z,100905.84
2022-10-06T00:11:04.060Z,100900.72
2022-10-06T00:13:30.957Z,100904.50
2022-10-06T00:15:57.583Z,100907.16
2022-10-06T00:18:23.981Z,100921.63
2022-10-06T00:20:58.101Z,100926.66
2022-10-06T00:23:24.752Z,100930.22
2022-10-06T00:25:51.145Z,100934.50
2022-10-06T00:28:17.631Z,100942.34
2022-10-06T00:30:44.923Z,100940.72
2022-10-06T00:33:15.459Z,100956.63
2022-10-06T00:35:43.736Z,100956.50
2022-10-06T00:38:15.583Z,100961.69
2022-10-06T00:40:47.826Z,100960.91
2022-10-06T00:43:43.741Z,100963.41
2022-10-06T00:46:16.811Z,100959.66
2022-10-06T00:48:46.516Z,100967.41
2022-10-06T00:51:14.126Z,100960.44
2022-10-06T00:53:41.371Z,100965.75
2022-10-06T00:56:07.753Z,100955.88
2022-10-06T00:58:34.138Z,100959.97
2022-10-06T01:01:01.646Z,100963.34
2022-10-06T01:03:38.077Z,100967.75
2022-10-06T01:06:05.187Z,100978.25
2022-10-06T01:08:33.274Z,100986.09
2022-10-06T01:10:59.916Z,100985.91
2022-10-06T01:13:27.912Z,100987.59
2022-10-06T01:16:10.422Z,100992.81
2022-10-06T01:18:40.317Z,100997.97
2022-10-06T01:21:14.744Z,101003.09
2022-10-06T01:23:41.516Z,101012.91
2022-10-06T01:26:11.316Z,101014.41
2022-10-06T01:28:39.351Z,101023.94
2022-10-06T01:31:08.270Z,101033.59
2022-10-06T01:33:34.791Z,101026.41
2022-10-06T01:36:01.165Z,101040.63
2022-10-06T01:38:27.925Z,101046.31
2022-10-06T01:40:54.586Z,101064.00
2022-10-06T01:43:21.710Z,101067.50
2022-10-06T01:45:56.002Z,101063.34
2022-10-06T01:48:23.389Z,101067.13
2022-10-06T01:50:50.209Z,101080.59
2022-10-06T01:53:17.737Z,101084.59
2022-10-06T01:55:44.257Z,101087.22
2022-10-06T01:58:11.453Z,101089.69
2022-10-06T02:00:38.865Z,101095.41
2022-10-06T02:03:05.925Z,101084.16
2022-10-06T02:05:32.386Z,101083.81
2022-10-06T02:07:58.735Z,101087.72
2022-10-06T02:10:25.075Z,101082.69
2022-10-06T02:12:53.058Z,101087.56
2022-10-06T02:15:20.642Z,101091.88
2022-10-06T02:17:49.785Z,101083.31
2022-10-06T02:20:16.338Z,101097.63
2022-10-06T02:22:43.733Z,101095.94
2022-10-06T02:25:11.874Z,101102.81
2022-10-06T02:27:39.279Z,101097.81
2022-10-06T02:30:07.390Z,101103.75
2022-10-06T02:32:36.237Z,101101.00
2022-10-06T02:35:04.171Z,101115.09
2022-10-06T02:37:30.930Z,101107.75
2022-10-06T02:39:57.411Z,101122.66
2022-10-06T02:42:23.893Z,101127.06
2022-10-06T02:44:52.077Z,101126.25
2022-10-06T02:47:19.398Z,101127.38
2022-10-06T02:49:46.182Z,101137.47
2022-10-06T02:52:12.543Z,101133.09
2022-10-06T02:54:38.905Z,101143.78
2022-10-06T02:57:05.253Z,101143.84
2022-10-06T02:59:31.577Z,101150.50
2022-10-06T03:01:58.001Z,101150.13
2022-10-06T03:04:24.438Z,101159.84
2022-10-06T03:06:50.886Z,101155.50
2022-10-06T03:09:18.795Z,101170.72
2022-10-06T03:11:45.212Z,101173.81
2022-10-06T03:14:11.746Z,101170.25
2022-10-06T03:16:40.195Z,101179.38
2022-10-06T03:19:08.043Z,101174.91
2022-10-06T03:21:40.897Z,101183.06
2022-10-06T03:24:07.372Z,101196.56
2022-10-06T03:26:36.240Z,101203.72
2022-10-06T03:29:05.945Z,101198.53
2022-10-06T03:31:35.680Z,101201.50
2022-10-06T03:34:02.653Z,101207.09
2022-10-06T03:36:35.291Z,101201.75
2022-10-06T03:39:04.063Z,101212.88
2022-10-06T03:41:32.348Z,101219.97
2022-10-06T03:44:00.134Z,101226.22
2022-10-06T03:46:28.648Z,101233.53
2022-10-06T03:48:57.153Z,101238.69
2022-10-06T03:51:27.161Z,101239.38
2022-10-06T03:53:54.031Z,101243.94
2022-10-06T03:56:24.556Z,101236.88
2022-10-06T03:58:53.837Z,101250.97
2022-10-06T04:01:26.868Z,101258.19
2022-10-06T04:03:57.907Z,101254.41
2022-10-06T04:06:25.754Z,101258.03
2022-10-06T04:08:53.473Z,101261.63
2022-10-06T04:11:26.074Z,101270.53
2022-10-06T04:13:59.773Z,101270.72
2022-10-06T04:16:28.760Z,101279.63
2022-10-06T04:18:58.076Z,101283.00
2022-10-06T04:21:25.742Z,101278.47
2022-10-06T04:23:54.013Z,101291.41
2022-10-06T04:26:22.942Z,101286.84
2022-10-06T04:28:49.951Z,101293.03
2022-10-06T04:31:28.216Z,101302.88
2022-10-06T04:33:57.132Z,101298.63
2022-10-06T04:36:34.983Z,101303.75
2022-10-06T04:39:03.893Z,101304.06
2022-10-06T04:41:41.116Z,101308.66
2022-10-06T04:44:08.537Z,101308.66
2022-10-06T04:46:43.380Z,101319.63
2022-10-06T04:49:14.757Z,101310.81
2022-10-06T04:51:45.428Z,101314.03
2022-10-06T04:54:11.901Z,101324.63
2022-10-06T04:56:38.303Z,101325.47
2022-10-06T04:59:04.646Z,101324.75
2022-10-06T05:01:36.421Z,101332.28
2022-10-06T05:04:04.182Z,101326.94
2022-10-06T05:06:34.572Z,101338.09
2022-10-06T05:09:04.441Z,101349.59
2022-10-06T05:11:31.825Z,101346.72
2022-10-06T05:13:58.603Z,101361.34
2022-10-06T05:16:27.326Z,101359.75
2022-10-06T05:18:54.001Z,101366.25
2022-10-06T05:21:23.262Z,101368.84
2022-10-06T05:23:50.103Z,101378.81
2022-10-06T05:26:19.539Z,101377.31
2022-10-06T05:28:46.626Z,101376.38
2022-10-06T05:31:14.576Z,101382.88
2022-10-06T05:33:41.520Z,101388.09
2022-10-06T05:36:14.072Z,101395.41
2022-10-06T05:38:40.917Z,101399.09
2022-10-06T05:41:13.003Z,101402.06
2022-10-06T05:43:40.438Z,101410.06
2022-10-06T05:46:10.483Z,101419.06
2022-10-06T05:48:36.869Z,101415.63
2022-10-06T05:51:06.547Z,101432.38
2022-10-06T05:53:35.522Z,101436.09
2022-10-06T05:56:04.292Z,101437.84
2022-10-06T05:58:31.911Z,101439.94
2022-10-06T06:01:16.053Z,101438.63
2022-10-06T06:03:46.775Z,101453.34
2022-10-06T06:06:22.052Z,101455.06
2022-10-06T06:08:53.086Z,101467.84
2022-10-06T06:11:25.199Z,101470.09
2022-10-06T06:14:04.885Z,101468.13
2022-10-06T06:16:32.115Z,101477.09
2022-10-06T06:18:59.621Z,101480.72
2022-10-06T06:21:26.639Z,101487.91
2022-10-06T06:23:53.738Z,101494.78
2022-10-06T06:26:24.421Z,101495.31
2022-10-06T06:28:52.336Z,101508.38
2022-10-06T06:31:22.844Z,101511.91
2022-10-06T06:33:54.393Z,101518.91
2022-10-06T06:36:26.608Z,101527.06
2022-10-06T06:38:54.831Z,101532.28
2022-10-06T06:41:28.388Z,101542.75
2022-10-06T06:43:55.624Z,101541.00
2022-10-06T06:46:27.290Z,101547.84
2022-10-06T06:48:55.231Z,101551.41
2022-10-06T06:51:24.031Z,101562.91
2022-10-06T06:53:51.772Z,101560.19
2022-10-06T06:56:18.473Z,101566.03
2022-10-06T06:58:48.990Z,101567.34
2022-10-06T07:01:17.607Z,101568.59
2022-10-06T07:03:57.572Z,101577.94
2022-10-06T07:06:28.805Z,101585.16
2022-10-06T07:08:59.616Z,101588.63
2022-10-06T07:11:34.637Z,101593.41
2022-10-06T07:14:04.456Z,101584.50
2022-10-06T07:16:50.730Z,101592.19
2022-10-06T07:19:57.753Z,101601.00
2022-10-06T07:22:46.543Z,101602.75
2022-10-06T07:25:33.113Z,101612.31
2022-10-06T07:27:59.491Z,101609.34
2022-10-06T07:30:28.067Z,101614.38
2022-10-06T07:32:55.254Z,101614.13
2022-10-06T07:35:22.895Z,101611.94
2022-10-06T07:37:50.604Z,101615.03
2022-10-06T07:40:17.442Z,101616.78
2022-10-06T07:42:51.726Z,101621.13
2022-10-06T07:45:40.840Z,101627.41
2022-10-06T07:48:17.946Z,101626.88
2022-10-06T07:50:47.763Z,101641.75
2022-10-06T07:53:16.061Z,101639.22
2022-10-06T07:55:45.288Z,101644.22
2022-10-06T07:58:20.095Z,101644.47
2022-10-06T08:00:52.794Z,101650.53
2022-10-06T08:03:20.007Z,101647.22
2022-10-06T08:05:56.841Z,101646.59
2022-10-06T08:08:23.213Z,101657.84
2022-10-06T08:10:54.242Z,101659.75
2022-10-06T08:13:21.051Z,101656.97
2022-10-06T08:15:49.895Z,101656.28
2022-10-06T08:18:40.911Z,101661.81
2022-10-06T08:21:25.774Z,101669.53
2022-10-06T08:23:53.905Z,101669.53
2022-10-06T08:26:21.741Z,101676.81
2022-10-06T08:28:50.823Z,101677.78
2022-10-06T08:31:21.254Z,101682.56
2022-10-06T08:33:48.901Z,101689.03
2022-10-06T08:36:18.482Z,101693.03
2022-10-06T08:38:47.700Z,101692.19
2022-10-06T08:41:20.189Z,101690.66
2022-10-06T08:43:53.562Z,101685.13
2022-10-06T08:46:24.734Z,101694.13
2022-10-06T08:48:51.437Z,101697.56
2022-10-06T08:51:31.831Z,101695.75
2022-10-06T08:54:15.097Z,101701.25
2022-10-06T08:56:54.453Z,101702.47
2022-10-06T08:59:21.639Z,101699.56
2022-10-06T09:01:51.317Z,101699.69
2022-10-06T09:04:32.105Z,101701.28
2022-10-06T09:07:16.700Z,101701.84
2022-10-06T09:10:04.303Z,101707.50
2022-10-06T09:12:49.451Z,101704.81
2022-10-06T09:15:37.988Z,101708.03
2022-10-06T09:18:17.163Z,101714.31
2022-10-06T09:21:11.264Z,101720.63
2022-10-06T09:23:49.964Z,101710.88
2022-10-06T09:26:28.281Z,101714.75
2022-10-06T09:28:56.173Z,101718.38
2022-10-06T09:31:24.235Z,101719.63
2022-10-06T09:33:54.743Z,101716.81
2022-10-06T09:36:21.829Z,101713.97
2022-10-06T09:38:56.109Z,101715.66
2022-10-06T09:41:28.185Z,101718.31
2022-10-06T09:44:25.463Z,101726.56
2022-10-06T09:46:52.491Z,101725.91
2022-10-06T09:49:23.595Z,101733.00
2022-10-06T09:51:59.118Z,101724.09
2022-10-06T09:54:25.617Z,101726.56
2022-10-06T09:56:53.991Z,101727.41
2022-10-06T09:59:23.815Z,101725.66
2022-10-06T10:01:55.364Z,101726.63
2022-10-06T10:04:33.029Z,101723.19
2022-10-06T10:07:26.045Z,101725.03
2022-10-06T10:10:20.157Z,101723.75
2022-10-06T10:12:57.587Z,101721.72
2022-10-06T10:15:31.257Z,101722.56
2022-10-06T10:18:00.956Z,101725.22
2022-10-06T10:20:36.622Z,101723.84
2022-10-06T10:23:20.082Z,101716.31
2022-10-06T10:26:14.316Z,101720.00
2022-10-06T10:29:19.396Z,101721.94
2022-10-06T10:32:12.113Z,101718.94
2022-10-06T10:34:58.732Z,101726.47
2022-10-06T10:37:46.683Z,101720.16
2022-10-06T10:40:31.741Z,101724.41
2022-10-06T10:43:07.995Z,101729.09
2022-10-06T10:45:37.686Z,101722.94
2022-10-06T10:48:16.287Z,101725.78
2022-10-06T10:50:42.641Z,101732.44
2022-10-06T10:53:34.821Z,101721.56
2022-10-06T10:56:06.402Z,101723.78
2022-10-06T10:58:38.527Z,101728.34
2022-10-06T11:01:14.186Z,101722.38
2022-10-06T11:03:40.913Z,101722.88
2022-10-06T11:06:35.089Z,101726.09
2022-10-06T11:09:15.116Z,101726.47
2022-10-06T11:11:51.955Z,101713.69
2022-10-06T11:14:43.232Z,101718.72
2022-10-06T11:17:29.715Z,101724.34
2022-10-06T11:20:08.913Z,101721.91
2022-10-06T11:22:54.714Z,101718.72
2022-10-06T11:25:34.945Z,101716.94
2022-10-06T11:28:09.351Z,101718.34
2022-10-06T11:30:50.938Z,101719.88
2022-10-06T11:33:31.340Z,101718.56
2022-10-06T11:35:58.245Z,101713.09
2022-10-06T11:38:33.755Z,101707.38
2022-10-06T11:41:13.916Z,101703.19
2022-10-06T11:44:00.520Z,101710.84
2022-10-06T11:46:44.829Z,101697.59
2022-10-06T11:49:30.097Z,101686.66
2022-10-06T11:52:00.276Z,101696.91
2022-10-06T11:54:40.346Z,101685.38
2022-10-06T11:57:25.023Z,101690.69
2022-10-06T11:59:56.836Z,101692.19
2022-10-06T12:02:32.382Z,101686.34
2022-10-06T12:05:47.107Z,101682.91
2022-10-06T12:08:00.489Z,101680.44
2022-10-06T12:10:29.864Z,101680.13
2022-10-06T12:13:31.834Z,101676.00
2022-10-06T12:17:08.406Z,101678.25
2022-10-06T12:19:28.820Z,101672.84
2022-10-06T12:23:00.102Z,101676.03
2022-10-06T12:25:27.798Z,101672.56
2022-10-06T12:28:04.127Z,101670.63
2022-10-06T12:30:42.180Z,101670.13
2022-10-06T12:33:17.963Z,101659.84
2022-10-06T12:35:45.496Z,101659.19
2022-10-06T12:38:30.537Z,101651.97
2022-10-06T12:40:57.613Z,101654.34
2022-10-06T12:43:23.903Z,101657.59
2022-10-06T12:45:56.330Z,101661.59
2022-10-06T12:48:53.529Z,101653.03
2022-10-06T12:51:39.807Z,101655.47
2022-10-06T12:54:37.265Z,101659.25
2022-10-06T12:57:17.787Z,101653.59
2022-10-06T12:59:44.650Z,101652.84
2022-10-06T13:02:22.551Z,101655.94
2022-10-06T13:04:54.505Z,101649.25
2022-10-06T13:07:29.349Z,101644.13
2022-10-06T13:10:17.238Z,101644.69
2022-10-06T13:12:47.103Z,101644.84
2022-10-06T13:15:19.308Z,101639.94
2022-10-06T13:18:00.086Z,101641.25
2022-10-06T13:20:35.412Z,101638.81
2022-10-06T13:23:19.069Z,101641.44
2022-10-06T13:25:50.190Z,101643.28
2022-10-06T13:28:35.599Z,101643.25
2022-10-06T13:31:16.529Z,101644.47
2022-10-06T13:33:45.188Z,101640.03
2022-10-06T13:36:12.618Z,101632.31
2022-10-06T13:38:41.167Z,101623.34
2022-10-06T13:41:13.920Z,101629.69
2022-10-06T13:43:48.351Z,101625.63
2022-10-06T13:46:18.445Z,101633.56
2022-10-06T13:48:51.279Z,101636.81
2022-10-06T13:51:24.380Z,101624.44
2022-10-06T13:53:51.493Z,101622.91
2022-10-06T13:56:39.132Z,101618.16
2022-10-06T13:59:15.919Z,101628.59
2022-10-06T14:01:42.778Z,101628.28
2022-10-06T14:04:20.159Z,101627.72
2022-10-06T14:06:53.733Z,101625.69
2022-10-06T14:09:24.257Z,101623.66
2022-10-06T14:11:53.689Z,101615.84
2022-10-06T14:14:20.489Z,101621.09
2022-10-06T14:16:53.334Z,101622.38
2022-10-06T14:19:34.016Z,101619.34
2022-10-06T14:22:02.365Z,101618.97
2022-10-06T14:24:29.335Z,101613.19
2022-10-06T14:27:01.805Z,101619.06
2022-10-06T14:29:28.333Z,101614.28
2022-10-06T14:31:54.809Z,101603.06
2022-10-06T14:34:22.127Z,101611.97
2022-10-06T14:36:55.174Z,101603.00
2022-10-06T14:39:22.256Z,101602.53
2022-10-06T14:41:48.692Z,101599.84
2022-10-06T14:44:15.997Z,101601.28
2022-10-06T14:46:47.384Z,101587.38
2022-10-06T14:49:14.510Z,101592.88
2022-10-06T14:51:42.737Z,101582.34
2022-10-06T14:54:10.572Z,101587.81
2022-10-06T14:56:39.459Z,101588.88
2022-10-06T14:59:12.522Z,101593.34
2022-10-06T15:01:40.472Z,101579.78
2022-10-06T15:04:11.208Z,101582.91
2022-10-06T15:06:56.701Z,101580.47
2022-10-06T15:09:23.782Z,101585.16
2022-10-06T15:11:51.663Z,101581.56
2022-10-06T15:14:18.105Z,101578.84
2022-10-06T15:16:44.832Z,101576.44
2022-10-06T15:19:12.580Z,101580.56
2022-10-06T15:21:39.996Z,101576.78
2022-10-06T15:24:08.097Z,101571.25
2022-10-06T15:26:53.029Z,101572.25
2022-10-06T15:29:19.559Z,101571.94
2022-10-06T15:31:52.751Z,101573.47
2022-10-06T15:34:30.447Z,101570.16
2022-10-06T15:36:57.712Z,101568.59
2022-10-06T15:39:27.153Z,101565.00
2022-10-06T15:41:54.004Z,101563.28
2022-10-06T15:44:21.146Z,101563.44
2022-10-06T15:46:55.735Z,101559.00
2022-10-06T15:49:24.306Z,101553.91
2022-10-06T15:51:59.618Z,101566.06
2022-10-06T15:54:37.501Z,101562.47
2022-10-06T15:57:05.699Z,101569.72
2022-10-06T15:59:33.719Z,101574.09
2022-10-06T16:02:14.579Z,101563.66
2022-10-06T16:04:42.240Z,101562.22
2022-10-06T16:07:10.944Z,101567.88
2022-10-06T16:09:45.499Z,101564.47
2022-10-06T16:12:16.295Z,101561.00
2022-10-06T16:14:42.889Z,101564.72
2022-10-06T16:17:09.941Z,101559.84
2022-10-06T16:19:37.212Z,101565.28
2022-10-06T16:22:05.546Z,101565.94
2022-10-06T16:24:32.182Z,101560.66
2022-10-06T16:26:59.915Z,101564.25
2022-10-06T16:29:27.705Z,101571.97
2022-10-06T16:31:54.382Z,101563.78
2022-10-06T16:34:20.940Z,101566.81
2022-10-06T16:36:47.362Z,101570.28
2022-10-06T16:39:21.233Z,101567.34
2022-10-06T16:41:48.160Z,101571.91
2022-10-06T16:44:15.505Z,101560.78
2022-10-06T16:46:42.617Z,101564.22
2022-10-06T16:49:09.916Z,101568.13
2022-10-06T16:51:42.083Z,101570.44
2022-10-06T16:54:10.890Z,101571.69
2022-10-06T16:56:48.828Z,101568.03
2022-10-06T16:59:20.095Z,101575.94
2022-10-06T17:01:47.475Z,101572.72
2022-10-06T17:04:19.086Z,101569.28
2022-10-06T17:06:53.644Z,101577.22
2022-10-06T17:09:22.938Z,101578.59
2022-10-06T17:11:54.736Z,101575.50
2022-10-06T17:14:21.753Z,101573.94
2022-10-06T17:16:50.747Z,101575.13
2022-10-06T17:19:19.096Z,101579.03
2022-10-06T17:21:48.037Z,101583.78
2022-10-06T17:24:17.831Z,101581.13
2022-10-06T17:26:47.138Z,101587.69
2022-10-06T17:29:21.054Z,101587.50
2022-10-06T17:31:48.820Z,101589.13
2022-10-06T17:34:20.838Z,101599.31
2022-10-06T17:36:49.339Z,101598.50
2022-10-06T17:39:18.587Z,101599.56
2022-10-06T17:41:46.722Z,101606.09
2022-10-06T17:44:21.218Z,101597.78
2022-10-06T17:46:49.751Z,101605.69
2022-10-06T17:49:17.727Z,101607.09
2022-10-06T17:51:47.917Z,101604.47
2022-10-06T17:54:18.008Z,101602.78
2022-10-06T17:56:45.506Z,101608.09
2022-10-06T17:59:15.362Z,101610.31
2022-10-06T18:01:44.134Z,101615.19
2022-10-06T18:04:12.932Z,101601.75
2022-10-06T18:06:39.371Z,101607.25
2022-10-06T18:09:06.821Z,101613.50
2022-10-06T18:11:38.246Z,101615.31
2022-10-06T18:14:16.852Z,101615.50
2022-10-06T18:16:52.222Z,101611.25
2022-10-06T18:19:26.271Z,101621.88
2022-10-06T18:21:56.287Z,101619.84
2022-10-06T18:24:25.546Z,101618.91
2022-10-06T18:26:54.030Z,101619.72
2022-10-06T18:29:23.020Z,101626.84
2022-10-06T18:31:51.963Z,101620.56
2022-10-06T18:37:05.547Z,101619.09
2022-10-06T18:39:33.328Z,101615.59
2022-10-06T18:42:02.888Z,101610.31
2022-10-06T18:44:48.413Z,101609.44
2022-10-06T18:47:33.385Z,101606.16
2022-10-06T18:49:59.758Z,101611.34
2022-10-06T18:52:26.164Z,101604.38
2022-10-06T18:54:52.578Z,101605.19
2022-10-06T18:57:20.743Z,101598.31
2022-10-06T18:59:50.445Z,101596.44
2022-10-06T19:02:17.013Z,101599.06
2022-10-06T19:04:43.488Z,101614.34
2022-10-06T19:07:09.918Z,101610.00
2022-10-06T19:09:36.354Z,101614.50
2022-10-06T19:12:02.872Z,101610.16
2022-10-06T19:14:35.864Z,101619.00
2022-10-06T19:17:13.942Z,101628.97
2022-10-06T19:19:42.426Z,101630.78
2022-10-06T19:22:12.780Z,101636.16
2022-10-06T19:24:41.709Z,101632.59
2022-10-06T19:27:15.096Z,101631.78
2022-10-06T19:29:45.858Z,101630.94
2022-10-06T19:32:18.792Z,101630.91
2022-10-06T19:34:46.785Z,101638.13
2022-10-06T19:37:13.977Z,101636.44
2022-10-06T19:39:43.077Z,101636.50
2022-10-06T19:42:35.596Z,101632.13
2022-10-06T19:45:02.247Z,101633.78
2022-10-06T19:47:28.779Z,101636.44
2022-10-06T19:49:58.908Z,101638.19
2022-10-06T19:52:27.354Z,101628.59
2022-10-06T19:54:53.709Z,101637.41
2022-10-06T19:57:20.024Z,101639.25
2022-10-06T19:59:46.386Z,101641.00
2022-10-06T20:02:12.759Z,101643.78
2022-10-06T20:04:39.969Z,101636.63
2022-10-06T20:07:06.494Z,101644.56
2022-10-06T20:09:33.506Z,101640.13
2022-10-06T20:12:01.427Z,101641.97
2022-10-06T20:14:28.695Z,101655.22
2022-10-06T20:16:56.074Z,101649.94
2022-10-06T20:19:25.157Z,101646.50
2022-10-06T20:21:52.215Z,101642.94
2022-10-06T20:24:22.645Z,101650.94
2022-10-06T20:26:50.549Z,101646.44
2022-10-06T20:29:26.352Z,101642.00
2022-10-06T20:31:55.067Z,101642.06
2022-10-06T20:34:24.664Z,101650.06
2022-10-06T20:36:56.056Z,101647.41
2022-10-06T20:39:41.751Z,101642.94
2022-10-06T20:42:13.662Z,101646.56
2022-10-06T20:44:41.989Z,101643.00
2022-10-06T20:47:08.871Z,101642.13
2022-10-06T20:49:35.245Z,101646.59
2022-10-06T20:52:03.233Z,101643.06
2022-10-06T20:54:39.051Z,101640.41
2022-10-06T20:57:06.700Z,101635.13
2022-10-06T20:59:35.315Z,101645.72
2022-10-06T21:02:03.033Z,101637.78
2022-10-06T21:04:30.211Z,101644.84
2022-10-06T21:06:57.188Z,101638.63
2022-10-06T21:09:24.288Z,101636.00
2022-10-06T21:11:50.750Z,101635.13
2022-10-06T21:14:18.138Z,101635.09
2022-10-06T21:16:46.421Z,101623.63
2022-10-06T21:19:15.050Z,101630.69
2022-10-06T21:21:43.043Z,101628.03
2022-10-06T21:24:10.151Z,101630.69
2022-10-06T21:26:38.577Z,101629.81
2022-10-06T21:29:05.296Z,101628.94
2022-10-06T21:31:33.062Z,101621.88
2022-10-06T21:34:01.224Z,101620.09
2022-10-06T21:36:29.733Z,101627.19
2022-10-06T21:38:57.777Z,101623.63
2022-10-06T21:41:30.049Z,101617.44
2022-10-06T21:43:57.563Z,101617.41
2022-10-06T21:46:28.797Z,101620.97
2022-10-06T21:48:57.877Z,101618.31
2022-10-06T21:51:26.023Z,101618.31
2022-10-06T21:53:53.289Z,101609.47
2022-10-06T21:56:21.116Z,101607.63
2022-10-06T21:58:52.694Z,101607.63
2022-10-06T22:01:21.307Z,101608.53
2022-10-06T22:03:48.938Z,101605.88
2022-10-06T22:06:19.386Z,101611.13
2022-10-06T22:08:46.953Z,101611.97
2022-10-06T22:11:16.347Z,101606.69
2022-10-06T22:13:45.501Z,101604.97
2022-10-06T22:16:14.118Z,101604.97
2022-10-06T22:18:41.845Z,101598.81
2022-10-06T22:21:15.597Z,101613.81
2022-10-06T22:23:43.425Z,101602.28
2022-10-06T22:26:11.533Z,101608.50
2022-10-06T22:28:38.275Z,101606.63
2022-10-06T22:31:09.427Z,101603.16
2022-10-06T22:33:38.526Z,101599.59
2022-10-06T22:36:06.301Z,101596.94
2022-10-06T22:38:33.887Z,101598.69
2022-10-06T22:41:01.861Z,101596.00
2022-10-06T22:43:29.190Z,101590.75
2022-10-06T22:45:56.366Z,101587.19
2022-10-06T22:48:23.485Z,101581.81
2022-10-06T22:50:50.218Z,101578.34
2022-10-06T22:53:17.290Z,101580.13
2022-10-06T22:55:43.640Z,101581.00
2022-10-06T22:58:10.758Z,101574.78
2022-10-06T23:00:37.488Z,101579.13
2022-10-06T23:03:04.441Z,101575.59
2022-10-06T23:05:31.419Z,101575.66
2022-10-06T23:07:57.862Z,101570.31
2022-10-06T23:10:25.001Z,101565.88
2022-10-06T23:12:56.012Z,101569.34
2022-10-06T23:15:22.541Z,101567.66
2022-10-06T23:17:49.145Z,101563.25
2022-10-06T23:20:15.827Z,101560.53
2022-10-06T23:22:42.265Z,101556.13
2022-10-06T23:25:09.261Z,101552.53
2022-10-06T23:27:36.242Z,101553.47
2022-10-06T23:30:04.290Z,101549.06
2022-10-06T23:32:30.863Z,101550.00
2022-10-06T23:34:57.178Z,101560.53
2022-10-06T23:37:23.559Z,101563.25
2022-10-06T23:39:49.858Z,101556.19
2022-10-06T23:42:16.193Z,101550.00
2022-10-06T23:44:42.550Z,101548.13
2022-10-06T23:47:08.907Z,101552.50
2022-10-06T23:49:35.319Z,101553.31
2022-10-06T23:52:03.427Z,101551.63
2022-10-06T23:54:30.177Z,101555.09
2022-10-06T23:56:56.682Z,101546.41
2022-10-06T23:59:23.711Z,101538.44
